Time;durP1;ratioP1;P1;durP2;ratioP2;P2;SDS_P1;SDS_P2;PMS_P1;PMS_P2;Temp;Humidity;BMP_temperature;BMP_pressure;BME280_temperature;BME280_humidity;BME280_pressure;Samples;Min_cycle;Max_cycle;Signal;HPM_P1;HPM_P2
2023/05/01 00:00:23;;;;;;;7.57;6.70;;;;;;;14.45;88.92;99795.41;5033192;28;20108;-62
2023/05/01 00:02:49;;;;;;;10.32;6.72;;;;;;;14.65;90.41;99792.00;5032952;28;20256;-63
2023/05/01 00:05:14;;;;;;;9.98;6.68;;;;;;;14.65;90.48;99785.84;5033629;28;20260;-67
2023/05/01 00:07:40;;;;;;;8.18;6.05;;;;;;;14.83;89.25;99780.91;5033976;28;20202;-63
2023/05/01 00:10:06;;;;;;;9.60;7.18;;;;;;;14.86;89.97;99780.53;5031977;28;20336;-67
2023/05/01 00:12:31;;;;;;;8.15;5.97;;;;;;;14.79;90.37;99771.63;5033411;28;20067;-63
2023/05/01 00:14:57;;;;;;;6.65;5.40;;;;;;;14.65;91.68;99764.50;5034513;28;20231;-63
2023/05/01 00:17:22;;;;;;;5.65;5.15;;;;;;;14.53;92.25;99768.66;5031710;28;20060;-69
2023/05/01 00:19:52;;;;;;;6.32;5.30;;;;;;;14.54;92.17;99765.78;5034230;28;20034;-64
2023/05/01 00:22:17;;;;;;;7.00;5.88;;;;;;;14.68;91.90;99764.13;5033306;28;20033;-63
2023/05/01 00:24:43;;;;;;;7.20;5.43;;;;;;;14.83;90.32;99764.91;5034228;28;20038;-67
2023/05/01 00:27:08;;;;;;;6.20;5.55;;;;;;;14.94;88.88;99764.41;5033296;28;20358;-63
2023/05/01 00:29:33;;;;;;;6.72;4.78;;;;;;;15.06;88.12;99762.06;5034066;28;20045;-63
2023/05/01 00:31:59;;;;;;;7.05;5.45;;;;;;;15.18;87.71;99762.38;5032627;28;20040;-67
2023/05/01 00:34:24;;;;;;;7.43;5.90;;;;;;;15.25;86.89;99769.44;5034596;28;20037;-67
2023/05/01 00:36:50;;;;;;;5.90;5.30;;;;;;;15.10;86.08;99767.84;5033541;28;20240;-64
2023/05/01 00:39:16;;;;;;;6.55;5.80;;;;;;;15.19;84.69;99769.38;5033232;28;20057;-67
2023/05/01 00:41:41;;;;;;;9.35;6.00;;;;;;;15.22;84.19;99767.16;5034733;28;20033;-64
2023/05/01 00:44:06;;;;;;;7.90;6.07;;;;;;;15.31;84.17;99774.00;5034226;28;20041;-63
2023/05/01 00:46:33;;;;;;;7.13;5.78;;;;;;;15.38;83.69;99759.88;5033862;28;20044;-64
2023/05/01 00:48:58;;;;;;;7.80;6.57;;;;;;;15.38;83.67;99773.22;5034831;28;20045;-67
2023/05/01 00:51:26;;;;;;;7.13;6.43;;;;;;;15.44;83.64;99775.97;5032449;28;20033;-63
2023/05/01 00:53:53;;;;;;;6.35;5.60;;;;;;;15.49;82.48;99770.03;5030318;28;20084;-64
2023/05/01 00:56:18;;;;;;;7.40;5.30;;;;;;;15.46;81.72;99770.44;5033477;28;20707;-63
2023/05/01 00:58:48;;;;;;;8.15;5.38;;;;;;;15.48;82.40;99769.22;5032656;28;20230;-67
2023/05/01 01:01:15;;;;;;;7.32;5.45;;;;;;;15.47;82.41;99772.91;5032936;28;20041;-67
2023/05/01 01:03:40;;;;;;;6.63;5.82;;;;;;;15.52;83.80;99769.66;5033622;28;20026;-68
2023/05/01 01:06:30;;;;;;;8.13;5.85;;;;;;;15.52;82.35;99775.00;5030266;28;20052;-64
2023/05/01 01:09:01;;;;;;;6.32;5.53;;;;;;;15.36;82.01;99788.59;5031435;28;20089;-68
2023/05/01 01:12:00;;;;;;;6.75;5.47;;;;;;;15.17;82.48;99787.41;5033553;28;20277;-64
2023/05/01 01:14:35;;;;;;;;;;;;;;;14.97;82.64;99789.88;5030048;28;20057;-63
2023/05/01 01:17:06;;;;;;;;;;;;;;;14.73;83.66;99793.72;5034277;28;19920;-63
2023/05/01 01:19:50;;;;;;;8.38;5.63;;;;;;;14.34;86.11;99804.66;5032335;28;19960;-63
2023/05/01 01:22:21;;;;;;;9.75;6.28;;;;;;;14.23;87.01;99797.94;5031578;28;20250;-64
2023/05/01 01:25:29;;;;;;;8.30;6.38;;;;;;;14.12;87.46;99805.56;5031642;28;20059;-64
2023/05/01 01:28:15;;;;;;;7.30;6.35;;;;;;;14.06;88.07;99802.63;5046604;28;20052;-63
2023/05/01 01:30:59;;;;;;;8.00;6.43;;;;;;;14.02;87.91;99804.00;5032819;28;20323;-67
2023/05/01 01:33:53;;;;;;;8.60;6.87;;;;;;;14.04;87.18;99803.81;5025288;28;20053;-67
2023/05/01 01:36:29;;;;;;;8.45;5.90;;;;;;;13.79;88.00;99811.22;5028661;28;20555;-67
2023/05/01 01:39:20;;;;;;;9.07;5.88;;;;;;;13.66;89.70;99814.50;5032650;28;20096;-68
2023/05/01 01:41:49;;;;;;;7.97;5.93;;;;;;;13.57;90.29;99820.91;5031477;28;20124;-67
2023/05/01 01:44:21;;;;;;;7.38;6.10;;;;;;;13.64;89.70;99816.53;5032881;28;20052;-64
2023/05/01 01:46:49;;;;;;;6.78;6.07;;;;;;;13.77;89.23;99815.09;5033820;28;20041;-63
2023/05/01 01:49:20;;;;;;;7.30;5.57;;;;;;;13.87;88.15;99813.00;5032592;28;20128;-63
2023/05/01 01:51:47;;;;;;;6.53;5.35;;;;;;;13.99;87.78;99804.38;5028393;28;20033;-67
2023/05/01 01:54:15;;;;;;;10.02;6.30;;;;;;;13.96;87.39;99814.56;5032659;28;20331;-64
2023/05/01 01:56:41;;;;;;;10.15;5.75;;;;;;;14.05;86.98;99806.31;5032285;28;20152;-67
2023/05/01 01:59:08;;;;;;;8.27;6.47;;;;;;;14.08;86.65;99794.47;5031770;28;20053;-67
2023/05/01 02:01:35;;;;;;;7.30;5.40;;;;;;;14.13;86.07;99800.06;5031807;28;20048;-67
2023/05/01 02:04:02;;;;;;;7.28;5.38;;;;;;;14.23;85.14;99800.63;5032659;28;20033;-67
2023/05/01 02:06:30;;;;;;;8.15;5.88;;;;;;;14.29;84.97;99807.88;5031213;28;20072;-64
2023/05/01 02:08:57;;;;;;;8.38;5.63;;;;;;;14.24;84.75;99818.25;5031528;28;20078;-67
2023/05/01 02:11:24;;;;;;;6.93;5.22;;;;;;;14.28;84.05;99798.22;5032474;28;20040;-63
2023/05/01 02:13:51;;;;;;;6.38;5.40;;;;;;;14.20;83.85;99797.50;5033200;28;20124;-67
2023/05/01 02:16:19;;;;;;;7.50;5.57;;;;;;;14.31;83.23;99807.69;5032309;28;20104;-63
2023/05/01 02:18:45;;;;;;;8.25;5.50;;;;;;;14.39;82.77;99810.25;5033977;28;20118;-67
2023/05/01 02:21:11;;;;;;;6.78;5.50;;;;;;;14.42;82.37;99819.72;5036198;28;20049;-63
2023/05/01 02:23:38;;;;;;;5.72;5.15;;;;;;;14.34;82.45;99802.81;5036408;28;20331;-63
2023/05/01 02:26:05;;;;;;;7.43;5.45;;;;;;;14.23;82.88;99805.13;5035716;28;20100;-67
2023/05/01 02:28:33;;;;;;;7.97;6.00;;;;;;;14.19;83.03;99798.50;5035839;28;20430;-63
2023/05/01 02:30:58;;;;;;;8.07;6.22;;;;;;;14.22;82.56;99803.47;5036868;28;20084;-63
2023/05/01 02:33:24;;;;;;;9.35;6.97;;;;;;;14.16;83.18;99805.03;5034833;28;20025;-67
2023/05/01 02:35:50;;;;;;;7.57;6.05;;;;;;;14.22;83.20;99798.13;5034024;28;20029;-64
2023/05/01 02:38:16;;;;;;;8.93;6.43;;;;;;;14.25;83.09;99808.41;5036174;28;20033;-63
2023/05/01 02:40:50;;;;;;;13.10;6.03;;;;;;;14.14;81.36;99815.03;5035503;28;20073;-67
2023/05/01 02:43:19;;;;;;;8.25;5.65;;;;;;;13.94;83.38;99822.72;5034629;28;20041;-67
2023/05/01 02:45:46;;;;;;;6.55;5.03;;;;;;;13.97;83.73;99824.19;5035330;28;20029;-67
2023/05/01 02:48:17;;;;;;;7.55;5.70;;;;;;;14.04;84.02;99820.63;5034750;28;20307;-67
2023/05/01 02:50:43;;;;;;;8.15;5.88;;;;;;;13.99;83.75;99832.84;5032937;28;20037;-67
2023/05/01 02:53:10;;;;;;;6.72;5.70;;;;;;;13.78;85.37;99832.72;5031385;28;20038;-67
2023/05/01 02:55:36;;;;;;;9.60;6.18;;;;;;;13.87;85.63;99818.31;5035873;28;20390;-67
2023/05/01 02:58:02;;;;;;;7.97;6.78;;;;;;;13.70;85.82;99829.09;5033298;28;20037;-67
2023/05/01 03:00:27;;;;;;;7.40;5.85;;;;;;;13.86;86.18;99836.13;5034568;28;20056;-64
2023/05/01 03:02:53;;;;;;;9.50;5.47;;;;;;;14.01;85.79;99850.28;5035779;28;20353;-64
2023/05/01 03:05:18;;;;;;;9.73;6.40;;;;;;;14.05;84.95;99859.56;5035100;28;20065;-68
2023/05/01 03:07:45;;;;;;;7.25;5.75;;;;;;;14.14;84.54;99854.97;5033703;28;20033;-67
2023/05/01 03:10:10;;;;;;;6.65;5.32;;;;;;;14.18;84.08;99856.25;5035129;28;20299;-64
2023/05/01 03:12:36;;;;;;;7.10;6.00;;;;;;;14.14;84.06;99849.66;5035018;28;20033;-66
2023/05/01 03:15:02;;;;;;;8.07;6.20;;;;;;;14.11;83.61;99843.88;5035648;28;20344;-63
2023/05/01 03:17:28;;;;;;;9.32;6.07;;;;;;;14.00;84.28;99853.13;5035550;28;20219;-67
2023/05/01 03:19:53;;;;;;;8.05;5.50;;;;;;;13.73;85.66;99851.88;5034456;28;20043;-67
2023/05/01 03:22:19;;;;;;;7.85;7.05;;;;;;;13.56;86.74;99847.69;5034808;28;20049;-63
2023/05/01 03:24:46;;;;;;;9.07;6.30;;;;;;;13.51;87.52;99842.88;5033967;28;20040;-67
2023/05/01 03:27:12;;;;;;;9.45;6.50;;;;;;;13.53;87.90;99842.72;5035135;28;20151;-63
2023/05/01 03:29:37;;;;;;;9.43;5.90;;;;;;;13.42;87.94;99838.63;5032481;28;20052;-68
2023/05/01 03:32:03;;;;;;;9.85;6.35;;;;;;;13.40;89.14;99845.97;5034792;28;20227;-64
2023/05/01 03:34:29;;;;;;;7.50;6.05;;;;;;;13.58;88.52;99843.84;5034575;28;20033;-67
2023/05/01 03:36:55;;;;;;;7.45;5.70;;;;;;;13.78;87.22;99854.00;5035643;28;20332;-67
2023/05/01 03:39:21;;;;;;;8.55;6.05;;;;;;;13.88;86.22;99860.72;5035362;28;20029;-67
2023/05/01 03:41:46;;;;;;;8.32;5.95;;;;;;;13.93;85.62;99852.19;5033482;28;20053;-66
2023/05/01 03:44:11;;;;;;;7.15;6.10;;;;;;;13.99;85.70;99857.63;5032660;28;20335;-63
2023/05/01 03:46:37;;;;;;;8.15;5.90;;;;;;;14.03;85.05;99866.06;5034216;28;20033;-67
2023/05/01 03:49:02;;;;;;;6.68;5.90;;;;;;;13.96;84.85;99865.97;5035619;28;20048;-63
2023/05/01 03:51:28;;;;;;;8.18;5.80;;;;;;;14.07;84.76;99876.19;5034441;28;20059;-67
2023/05/01 03:53:57;;;;;;;8.45;5.97;;;;;;;13.96;85.40;99884.59;5032783;28;20258;-62
2023/05/01 03:56:24;;;;;;;7.45;6.30;;;;;;;13.96;85.86;99879.28;5035372;28;20504;-64
2023/05/01 03:58:51;;;;;;;8.63;6.40;;;;;;;14.01;85.34;99876.91;5035613;28;20033;-64
2023/05/01 04:01:17;;;;;;;8.48;6.22;;;;;;;14.19;85.33;99883.72;5033750;28;20053;-64
2023/05/01 04:03:43;;;;;;;9.35;6.10;;;;;;;14.24;84.42;99889.31;5034795;28;20025;-64
2023/05/01 04:06:09;;;;;;;7.07;5.63;;;;;;;14.31;84.39;99890.25;5034016;28;20242;-63
2023/05/01 04:08:34;;;;;;;7.88;6.10;;;;;;;14.41;83.84;99898.81;5034041;28;20303;-68
2023/05/01 04:11:00;;;;;;;6.28;5.68;;;;;;;14.43;84.21;99901.31;5034288;28;20433;-63
2023/05/01 04:13:25;;;;;;;8.85;5.93;;;;;;;14.31;84.81;99899.06;5034505;28;20056;-67
2023/05/01 04:15:51;;;;;;;7.10;5.50;;;;;;;14.37;85.11;99905.50;5034557;28;20232;-63
2023/05/01 04:18:16;;;;;;;12.77;6.72;;;;;;;14.46;84.83;99904.44;5033660;28;20146;-65
2023/05/01 04:20:42;;;;;;;11.55;6.97;;;;;;;14.49;84.81;99912.06;5034377;28;20518;-67
2023/05/01 04:23:08;;;;;;;7.68;6.50;;;;;;;14.50;85.01;99907.56;5033848;28;20200;-63
2023/05/01 04:25:35;;;;;;;10.63;6.45;;;;;;;14.51;85.16;99911.88;5032559;28;20040;-67
2023/05/01 04:28:00;;;;;;;9.88;7.10;;;;;;;14.49;85.59;99912.06;5035149;28;20044;-67
2023/05/01 04:30:25;;;;;;;9.77;6.65;;;;;;;14.45;86.20;99913.44;5034725;28;20243;-68
2023/05/01 04:32:51;;;;;;;10.38;7.18;;;;;;;14.57;86.60;99924.50;5034277;28;20271;-66
2023/05/01 04:35:16;;;;;;;8.50;6.55;;;;;;;14.66;86.08;99918.06;5034699;28;20743;-63
2023/05/01 04:37:42;;;;;;;8.50;5.88;;;;;;;14.72;85.12;99911.19;5034142;28;20228;-67
2023/05/01 04:40:08;;;;;;;7.25;5.65;;;;;;;14.69;85.24;99917.69;5030482;28;20075;-67
2023/05/01 04:42:33;;;;;;;8.10;6.00;;;;;;;14.67;85.33;99919.72;5032746;28;20040;-64
2023/05/01 04:45:03;;;;;;;7.65;5.95;;;;;;;14.77;85.99;99924.78;5034463;28;20041;-64
2023/05/01 04:47:28;;;;;;;9.30;5.10;;;;;;;14.93;84.13;99925.41;5033535;28;20315;-67
2023/05/01 04:49:54;;;;;;;7.65;5.13;;;;;;;15.14;84.30;99923.81;5032847;28;20065;-67
2023/05/01 04:52:19;;;;;;;6.78;5.57;;;;;;;15.39;82.87;99925.13;5033601;28;20323;-64
2023/05/01 04:54:45;;;;;;;8.23;5.22;;;;;;;15.71;81.56;99923.88;5034534;28;20090;-63
2023/05/01 04:57:10;;;;;;;5.88;4.70;;;;;;;15.92;79.20;99926.53;5034459;28;20045;-67
2023/05/01 04:59:35;;;;;;;6.25;5.03;;;;;;;16.10;78.24;99925.25;5032538;28;20051;-63
2023/05/01 05:02:01;;;;;;;8.88;5.32;;;;;;;16.13;78.16;99920.34;5033198;28;20095;-64
2023/05/01 05:04:26;;;;;;;10.25;5.82;;;;;;;16.27;78.18;99934.63;5033943;28;20100;-68
2023/05/01 05:06:52;;;;;;;6.28;5.00;;;;;;;16.41;77.02;99924.84;5033442;28;20049;-63
2023/05/01 05:09:18;;;;;;;6.57;4.85;;;;;;;16.46;76.37;99925.91;5032783;28;20104;-65
2023/05/01 05:11:43;;;;;;;5.07;4.57;;;;;;;16.63;76.51;99926.44;5032251;28;20269;-64
2023/05/01 05:14:09;;;;;;;6.10;4.35;;;;;;;16.68;75.34;99928.59;5033279;28;20038;-67
2023/05/01 05:16:35;;;;;;;4.28;3.88;;;;;;;16.79;74.69;99934.19;5033308;28;20040;-67
2023/05/01 05:19:00;;;;;;;4.82;3.90;;;;;;;16.95;74.24;99942.91;5032806;28;20053;-68
2023/05/01 05:21:26;;;;;;;5.32;4.47;;;;;;;17.19;73.01;99942.41;5034367;28;20044;-64
2023/05/01 05:23:51;;;;;;;4.75;3.80;;;;;;;17.35;70.89;99944.72;5033431;28;20367;-67
2023/05/01 05:26:17;;;;;;;4.72;4.15;;;;;;;17.36;71.58;99935.66;5032624;28;20223;-63
2023/05/01 05:28:42;;;;;;;4.53;4.10;;;;;;;17.52;71.41;99940.66;5032354;28;20045;-68
2023/05/01 05:31:08;;;;;;;4.60;3.88;;;;;;;17.72;71.31;99946.13;5031050;28;20037;-63
2023/05/01 05:33:33;;;;;;;5.43;3.95;;;;;;;17.85;69.74;99940.78;5033233;28;20400;-63
2023/05/01 05:35:59;;;;;;;4.45;4.05;;;;;;;17.92;68.94;99940.78;5033730;28;20033;-66
2023/05/01 05:38:24;;;;;;;4.45;4.00;;;;;;;17.86;69.60;99936.25;5032459;28;20308;-64
2023/05/01 05:40:50;;;;;;;4.60;3.55;;;;;;;18.08;69.80;99951.09;5032189;28;20159;-64
2023/05/01 05:43:15;;;;;;;5.72;3.97;;;;;;;18.22;68.25;99951.94;5033342;28;20237;-64
2023/05/01 05:45:41;;;;;;;7.60;6.97;;;;;;;18.01;68.31;99954.81;5033610;28;20041;-65
2023/05/01 05:48:06;;;;;;;5.65;4.40;;;;;;;18.25;68.79;99961.41;5033540;28;20057;-65
2023/05/01 05:50:32;;;;;;;4.20;3.67;;;;;;;18.45;68.21;99959.53;5034683;28;20033;-64
2023/05/01 05:52:57;;;;;;;6.38;5.95;;;;;;;18.68;65.95;99973.38;5036381;28;20037;-64
2023/05/01 05:55:22;;;;;;;5.88;3.80;;;;;;;18.90;64.50;99965.09;5037077;28;20297;-64
2023/05/01 05:57:48;;;;;;;4.28;3.88;;;;;;;18.88;63.19;99961.78;5036019;28;20063;-67
2023/05/01 06:00:14;;;;;;;4.25;3.55;;;;;;;18.90;63.84;99957.03;5036963;28;20103;-67
2023/05/01 06:02:39;;;;;;;3.95;3.53;;;;;;;19.00;63.50;99963.63;5036537;28;20029;-64
2023/05/01 06:05:05;;;;;;;4.82;4.15;;;;;;;18.76;63.74;99966.97;5038195;28;20057;-67
2023/05/01 06:07:31;;;;;;;4.50;4.10;;;;;;;18.70;63.35;99960.56;5035753;28;20282;-64
2023/05/01 06:10:03;;;;;;;6.13;4.32;;;;;;;18.78;62.60;99967.59;5036138;28;20127;-67
2023/05/01 06:12:29;;;;;;;5.70;3.80;;;;;;;18.87;63.55;99974.38;5036947;28;20326;-64
2023/05/01 06:14:54;;;;;;;5.00;4.53;;;;;;;18.94;62.80;99972.50;5035821;28;20029;-64
2023/05/01 06:17:20;;;;;;;6.25;5.65;;;;;;;19.37;62.58;99980.81;5035001;28;20343;-64
2023/05/01 06:19:45;;;;;;;7.82;7.03;;;;;;;19.62;60.54;99982.78;5036395;28;20053;-64
2023/05/01 06:22:11;;;;;;;8.60;5.43;;;;;;;19.66;59.45;99984.84;5035761;28;20037;-68
2023/05/01 06:24:38;;;;;;;8.25;6.43;;;;;;;19.57;59.11;99982.63;5035064;28;20589;-67
2023/05/01 06:27:04;;;;;;;6.20;5.60;;;;;;;19.90;58.71;99985.13;5031654;28;20041;-64
2023/05/01 06:29:29;;;;;;;7.13;5.22;;;;;;;20.17;58.38;99981.22;5035747;28;20038;-67
2023/05/01 06:31:55;;;;;;;6.30;5.15;;;;;;;20.20;57.81;99979.94;5035449;28;20055;-64
2023/05/01 06:34:20;;;;;;;7.47;6.78;;;;;;;20.02;56.45;99980.72;5036802;28;20048;-64
2023/05/01 06:36:46;;;;;;;6.53;4.70;;;;;;;20.39;57.10;99987.91;5037059;28;20037;-66
2023/05/01 06:39:11;;;;;;;5.10;4.00;;;;;;;20.53;56.00;99985.91;5039262;28;20083;-68
2023/05/01 06:41:37;;;;;;;4.63;4.22;;;;;;;20.35;55.18;99992.03;5039532;28;20037;-68
2023/05/01 06:44:03;;;;;;;4.40;4.00;;;;;;;20.59;54.33;99993.09;5040542;28;20075;-64
2023/05/01 06:46:29;;;;;;;4.38;3.92;;;;;;;20.58;54.83;99996.00;5041036;28;20072;-64
2023/05/01 06:48:55;;;;;;;4.85;4.32;;;;;;;21.00;54.42;99994.38;5039993;28;20340;-65
2023/05/01 06:51:20;;;;;;;4.72;3.92;;;;;;;21.08;52.45;99998.63;5040218;28;20094;-64
2023/05/01 06:53:46;;;;;;;4.20;3.80;;;;;;;21.33;53.93;100002.09;5040798;28;20049;-66
2023/05/01 06:56:11;;;;;;;6.78;4.05;;;;;;;21.65;52.94;100011.63;5039973;28;20041;-68
2023/05/01 06:58:36;;;;;;;4.28;3.90;;;;;;;21.75;52.88;100008.38;5040380;28;20083;-64
2023/05/01 07:01:02;;;;;;;4.00;3.60;;;;;;;22.17;50.17;100011.16;5040607;28;20068;-68
2023/05/01 07:03:28;;;;;;;4.28;3.63;;;;;;;21.94;49.62;100007.31;5039515;28;20037;-64
2023/05/01 07:05:54;;;;;;;4.35;3.70;;;;;;;21.99;50.44;100007.44;5040053;28;20044;-67
2023/05/01 07:08:20;;;;;;;4.40;4.00;;;;;;;21.84;49.55;100004.31;5040276;28;20072;-67
2023/05/01 07:10:45;;;;;;;4.30;3.90;;;;;;;21.86;49.42;100007.63;5039608;28;20045;-64
2023/05/01 07:13:11;;;;;;;4.28;3.88;;;;;;;21.87;49.84;100011.97;5040434;28;20104;-65
2023/05/01 07:15:36;;;;;;;5.78;4.28;;;;;;;22.03;49.71;100012.41;5040012;28;20037;-64
2023/05/01 07:18:04;;;;;;;5.25;4.60;;;;;;;22.27;50.79;100011.41;5040338;28;20041;-64
2023/05/01 07:20:30;;;;;;;4.07;3.78;;;;;;;22.66;48.36;100012.63;5039524;28;20052;-65
2023/05/01 07:22:56;;;;;;;3.90;3.47;;;;;;;22.70;48.03;100016.50;5040166;28;20201;-67
2023/05/01 07:25:21;;;;;;;4.47;4.07;;;;;;;22.40;48.45;100016.59;5039076;28;20088;-65
2023/05/01 07:27:47;;;;;;;4.50;4.05;;;;;;;22.55;48.32;100010.75;5040083;28;20044;-64
2023/05/01 07:30:12;;;;;;;4.20;3.78;;;;;;;22.83;48.34;100015.47;5039446;28;20316;-67
2023/05/01 07:32:38;;;;;;;3.95;3.63;;;;;;;22.92;46.78;100012.22;5040110;28;20045;-67
2023/05/01 07:35:03;;;;;;;5.00;4.50;;;;;;;22.77;45.19;100011.81;5039227;28;20359;-68
2023/05/01 07:37:29;;;;;;;3.83;3.55;;;;;;;23.09;45.29;100019.59;5040028;28;20064;-64
2023/05/01 07:39:56;;;;;;;7.00;6.50;;;;;;;22.83;44.12;100018.16;5039695;28;20037;-65
2023/05/01 07:42:22;;;;;;;3.90;3.50;;;;;;;23.12;42.88;100021.81;5039283;28;20223;-63
2023/05/01 07:44:49;;;;;;;5.80;3.35;;;;;;;23.31;42.90;100020.59;5039357;28;20033;-64
2023/05/01 07:47:14;;;;;;;3.97;3.08;;;;;;;23.50;41.78;100015.84;5030575;28;20043;-68
2023/05/01 07:49:40;;;;;;;4.00;3.45;;;;;;;23.65;42.33;100013.47;5039144;28;20227;-65
2023/05/01 07:52:06;;;;;;;4.35;2.97;;;;;;;23.94;41.62;100013.50;5039343;28;20036;-65
2023/05/01 07:54:32;;;;;;;3.70;2.95;;;;;;;24.18;41.39;100009.59;5038052;28;20038;-64
2023/05/01 07:56:57;;;;;;;3.85;3.53;;;;;;;24.11;40.30;100014.34;5037974;28;20035;-68
2023/05/01 07:59:23;;;;;;;3.80;3.47;;;;;;;24.28;40.84;100014.41;5038899;28;20041;-65
2023/05/01 08:01:48;;;;;;;3.83;3.42;;;;;;;24.41;40.94;100022.19;5038689;28;20030;-68
2023/05/01 08:04:13;;;;;;;4.00;3.70;;;;;;;24.36;42.00;100014.81;5038663;28;20041;-65
2023/05/01 08:06:39;;;;;;;3.72;3.22;;;;;;;24.51;40.50;100012.34;5039798;28;20148;-65
2023/05/01 08:09:04;;;;;;;3.28;2.97;;;;;;;24.69;40.31;100011.25;5039398;28;20033;-68
2023/05/01 08:11:32;;;;;;;4.10;3.70;;;;;;;24.74;39.54;100015.94;5039183;28;20033;-66
2023/05/01 08:13:57;;;;;;;4.68;3.30;;;;;;;24.77;38.29;100013.56;5038384;28;20068;-65
2023/05/01 08:16:23;;;;;;;3.72;3.00;;;;;;;24.39;38.30;100017.03;5038711;28;20041;-64
2023/05/01 08:18:48;;;;;;;3.15;2.85;;;;;;;23.97;40.15;100031.94;5038107;28;20049;-64
2023/05/01 08:21:14;;;;;;;3.47;2.72;;;;;;;23.43;41.18;100032.19;5038435;28;20327;-67
2023/05/01 08:23:39;;;;;;;3.35;2.95;;;;;;;23.53;40.91;100028.88;5036985;28;20029;-68
2023/05/01 08:26:04;;;;;;;3.25;2.90;;;;;;;23.75;41.66;100031.78;5038679;28;20086;-68
2023/05/01 08:28:33;;;;;;;3.20;2.78;;;;;;;23.79;43.40;100039.16;5038472;28;20354;-68
2023/05/01 08:30:58;;;;;;;2.72;2.53;;;;;;;23.31;39.61;100033.28;5028983;28;20041;-68
2023/05/01 08:33:24;;;;;;;2.65;2.35;;;;;;;23.14;40.31;100035.91;5038764;28;20091;-65
2023/05/01 08:35:50;;;;;;;2.47;2.05;;;;;;;22.93;40.71;100026.53;5038406;28;20041;-67
2023/05/01 08:38:15;;;;;;;2.88;2.58;;;;;;;23.24;40.02;100031.53;5038452;28;20311;-68
2023/05/01 08:40:46;;;;;;;2.58;2.25;;;;;;;23.15;42.67;100021.34;5038335;28;20041;-68
2023/05/01 08:43:12;;;;;;;2.55;2.35;;;;;;;23.02;40.29;100029.69;5038660;28;20033;-68
2023/05/01 08:45:38;;;;;;;4.18;2.67;;;;;;;22.75;42.43;100024.72;5038906;28;20033;-68
2023/05/01 08:48:08;;;;;;;3.10;2.85;;;;;;;22.95;41.81;100024.41;5037537;28;20044;-65
2023/05/01 08:50:38;;;;;;;2.67;2.47;;;;;;;23.06;43.02;100028.16;5038100;28;20037;-68
2023/05/01 08:53:05;;;;;;;3.40;2.53;;;;;;;22.81;43.21;100026.50;5036732;28;20109;-68
2023/05/01 08:55:32;;;;;;;2.90;2.60;;;;;;;22.44;42.28;100023.16;5037074;28;20041;-65
2023/05/01 08:57:58;;;;;;;3.42;2.35;;;;;;;22.58;41.48;100016.50;5037479;28;20251;-68
2023/05/01 09:00:24;;;;;;;3.38;2.60;;;;;;;22.31;44.49;100023.38;5036671;28;20305;-67
2023/05/01 09:02:50;;;;;;;4.10;2.90;;;;;;;21.93;42.13;100021.03;5037381;28;20061;-65
2023/05/01 09:05:18;;;;;;;2.55;2.35;;;;;;;22.20;41.37;100025.00;5036881;28;20307;-65
2023/05/01 09:07:47;;;;;;;2.58;2.35;;;;;;;21.95;43.24;100016.22;5037447;28;20108;-67
2023/05/01 09:10:15;;;;;;;2.40;2.20;;;;;;;21.64;40.57;100026.16;5037386;28;20033;-65
2023/05/01 09:12:43;;;;;;;2.28;2.08;;;;;;;21.80;40.42;100018.47;5036059;28;20048;-64
2023/05/01 09:15:10;;;;;;;2.70;2.20;;;;;;;21.86;41.48;100026.50;5036646;28;20063;-67
2023/05/01 09:17:36;;;;;;;3.30;2.75;;;;;;;21.83;41.17;100007.25;5033279;28;20477;-63
2023/05/01 09:20:06;;;;;;;3.13;2.53;;;;;;;21.96;44.91;100013.31;5031695;28;20335;-67
2023/05/01 09:22:33;;;;;;;2.70;2.30;;;;;;;22.10;44.79;100015.81;5032660;28;20029;-68
2023/05/01 09:24:59;;;;;;;2.50;2.28;;;;;;;21.91;42.67;100020.44;5033527;28;20033;-64
2023/05/01 09:27:32;;;;;;;2.40;2.20;;;;;;;21.73;40.12;100013.19;5033878;28;20080;-67
2023/05/01 09:29:58;;;;;;;2.90;1.83;;;;;;;21.77;40.94;100014.38;5033026;28;20111;-64
2023/05/01 09:32:28;;;;;;;2.20;2.00;;;;;;;21.55;38.00;100018.59;5032669;28;20359;-67
2023/05/01 09:35:07;;;;;;;2.50;2.20;;;;;;;21.41;38.87;100011.75;5033693;28;20045;-64
2023/05/01 09:37:33;;;;;;;2.97;2.13;;;;;;;21.57;39.99;100021.91;5033463;28;20037;-64
2023/05/01 09:40:03;;;;;;;3.38;2.65;;;;;;;21.53;43.83;100015.31;5036628;28;20041;-67
2023/05/01 09:42:30;;;;;;;3.00;2.70;;;;;;;21.70;44.36;100019.03;5030586;28;20036;-67
2023/05/01 09:44:55;;;;;;;3.92;3.25;;;;;;;21.43;42.53;100017.72;5033069;28;20033;-67
2023/05/01 09:47:26;;;;;;;4.40;2.95;;;;;;;21.53;43.81;100012.63;5032698;28;20029;-63
2023/05/01 09:49:52;;;;;;;4.32;3.22;;;;;;;21.45;44.71;100024.53;5032129;28;20038;-67
2023/05/01 09:52:18;;;;;;;4.28;3.28;;;;;;;21.51;41.91;100018.25;5033371;28;20038;-67
2023/05/01 09:54:44;;;;;;;3.72;2.83;;;;;;;21.51;41.57;100020.13;5032969;28;20350;-67
2023/05/01 09:57:09;;;;;;;2.78;2.58;;;;;;;21.56;39.80;100007.59;5032271;28;20357;-67
2023/05/01 09:59:35;;;;;;;3.40;3.10;;;;;;;21.81;46.92;100006.66;5032923;28;20543;-67
2023/05/01 10:02:00;;;;;;;4.28;3.20;;;;;;;21.80;42.58;100011.22;5032702;28;20145;-68
2023/05/01 10:04:30;;;;;;;2.55;1.85;;;;;;;21.68;42.12;100016.56;5031432;28;20033;-67
2023/05/01 10:06:56;;;;;;;3.83;2.42;;;;;;;21.75;43.29;100021.03;5031074;28;20072;-67
2023/05/01 10:09:28;;;;;;;3.53;2.67;;;;;;;21.50;40.98;100015.78;5034448;28;20347;-67
2023/05/01 10:11:56;;;;;;;3.63;2.65;;;;;;;21.43;40.40;100005.06;5033323;28;20104;-67
2023/05/01 10:14:23;;;;;;;2.63;2.17;;;;;;;21.46;41.08;100014.56;5032150;28;20235;-67
2023/05/01 10:16:51;;;;;;;5.63;2.50;;;;;;;21.52;39.67;100008.28;5031373;28;20036;-67
2023/05/01 10:19:17;;;;;;;3.17;2.35;;;;;;;21.62;40.71;100014.78;5032033;28;20098;-64
2023/05/01 10:21:42;;;;;;;3.03;2.10;;;;;;;21.51;42.44;100017.41;5033586;28;20224;-67
2023/05/01 10:24:09;;;;;;;3.58;3.08;;;;;;;21.49;45.75;100016.81;5036458;28;20033;-64
2023/05/01 10:26:35;;;;;;;3.35;2.88;;;;;;;21.72;43.07;100019.63;5032686;28;20029;-67
2023/05/01 10:29:01;;;;;;;3.28;2.85;;;;;;;21.66;46.45;100018.66;5037168;28;20029;-64
2023/05/01 10:31:28;;;;;;;2.53;2.33;;;;;;;21.58;44.54;100026.25;5036298;28;20141;-67
2023/05/01 10:33:55;;;;;;;2.30;2.10;;;;;;;21.67;43.36;100030.25;5036575;28;20037;-67
2023/05/01 10:36:31;;;;;;;3.33;2.63;;;;;;;21.77;42.81;100022.47;5036952;28;20065;-67
2023/05/01 10:38:57;;;;;;;3.78;2.50;;;;;;;21.64;41.27;100018.06;5038952;28;20108;-68
2023/05/01 10:41:57;;;;;;;2.83;2.08;;;;;;;21.52;40.07;100027.97;5040184;28;20319;-65
2023/05/01 10:44:25;;;;;;;2.92;2.30;;;;;;;21.50;39.38;100018.47;5040067;28;20091;-65
2023/05/01 10:46:51;;;;;;;2.70;1.85;;;;;;;21.43;38.48;100031.19;5040895;28;20045;-68
2023/05/01 10:49:17;;;;;;;2.83;2.58;;;;;;;21.60;41.31;100022.25;5039957;28;20623;-68
2023/05/01 10:52:02;;;;;;;3.60;2.28;;;;;;;21.65;40.75;100030.50;5040059;28;20207;-68
2023/05/01 10:54:29;;;;;;;3.80;2.40;;;;;;;21.72;41.03;100024.19;5036614;28;20033;-65
2023/05/01 10:57:00;;;;;;;5.10;3.97;;;;;;;21.68;40.84;100034.59;5039987;28;20037;-65
2023/05/01 10:59:27;;;;;;;2.65;2.40;;;;;;;21.62;41.57;100024.72;5039592;28;20045;-64
2023/05/01 11:01:53;;;;;;;4.22;2.28;;;;;;;21.77;44.55;100019.75;5039601;28;20033;-64
2023/05/01 11:04:18;;;;;;;2.20;2.05;;;;;;;21.79;44.25;100028.44;5039304;28;20232;-66
2023/05/01 11:07:03;;;;;;;4.47;2.60;;;;;;;21.75;42.38;100029.94;5039289;28;20033;-64
2023/05/01 11:09:56;;;;;;;2.95;2.65;;;;;;;21.49;45.07;100038.38;5039470;28;20067;-65
2023/05/01 11:12:46;;;;;;;2.57;2.33;;;;;;;21.52;45.63;100033.34;5039077;28;20056;-68
2023/05/01 11:15:32;;;;;;;2.85;2.55;;;;;;;21.38;44.60;100045.34;5039296;28;20052;-68
2023/05/01 11:18:02;;;;;;;2.85;2.60;;;;;;;21.16;46.55;100060.25;5031878;28;20060;-67
2023/05/01 11:20:28;;;;;;;3.88;3.20;;;;;;;20.90;49.05;100053.28;5035447;28;20041;-65
2023/05/01 11:22:55;;;;;;;2.90;2.60;;;;;;;20.77;47.86;100043.44;5034781;28;20056;-68
2023/05/01 11:25:31;;;;;;;3.97;2.47;;;;;;;20.60;48.30;100048.53;5034795;28;20170;-64
2023/05/01 11:28:00;;;;;;;2.88;2.35;;;;;;;20.56;47.43;100054.59;5034246;28;20105;-64
2023/05/01 11:30:25;;;;;;;3.60;2.35;;;;;;;20.72;51.26;100035.19;5034147;28;20056;-65